sensor_id;sensor_type;location;lat;lon;timestamp;pressure;altitude;pressure_sealevel;temperature;humidity
47883;BME280;37739;50.350;7.578;2023-06-22T00:01:46;99809.78;;;24.28;63.31
47883;BME280;37739;50.350;7.578;2023-06-22T00:04:17;99815.59;;;24.44;63.93
47883;BME280;37739;50.350;7.578;2023-06-22T00:06:45;99817.94;;;24.60;63.44
47883;BME280;37739;50.350;7.578;2023-06-22T00:09:33;99811.97;;;24.52;64.85
47883;BME280;37739;50.350;7.578;2023-06-22T00:12:24;99813.63;;;24.57;64.62
47883;BME280;37739;50.350;7.578;2023-06-22T00:14:50;99815.25;;;24.63;64.04
47883;BME280;37739;50.350;7.578;2023-06-22T00:17:15;99824.31;;;24.46;64.47
47883;BME280;37739;50.350;7.578;2023-06-22T00:19:47;99830.31;;;24.53;66.40
47883;BME280;37739;50.350;7.578;2023-06-22T00:22:18;99844.22;;;24.57;65.96
47883;BME280;37739;50.350;7.578;2023-06-22T00:24:46;99847.69;;;24.59;65.48
47883;BME280;37739;50.350;7.578;2023-06-22T00:27:12;99848.50;;;24.61;65.25
47883;BME280;37739;50.350;7.578;2023-06-22T00:29:40;99844.31;;;24.50;64.32
47883;BME280;37739;50.350;7.578;2023-06-22T00:32:07;99843.56;;;24.44;65.02
47883;BME280;37739;50.350;7.578;2023-06-22T00:34:33;99851.38;;;24.47;64.03
47883;BME280;37739;50.350;7.578;2023-06-22T00:37:00;99852.19;;;24.52;63.72
47883;BME280;37739;50.350;7.578;2023-06-22T00:39:25;99843.56;;;24.44;63.25
47883;BME280;37739;50.350;7.578;2023-06-22T00:41:51;99847.94;;;24.43;63.31
47883;BME280;37739;50.350;7.578;2023-06-22T00:44:16;99852.13;;;24.54;62.18
47883;BME280;37739;50.350;7.578;2023-06-22T00:46:49;99854.66;;;24.60;61.83
47883;BME280;37739;50.350;7.578;2023-06-22T00:49:22;99860.00;;;24.55;61.49
47883;BME280;37739;50.350;7.578;2023-06-22T00:51:54;99863.47;;;24.56;61.62
47883;BME280;37739;50.350;7.578;2023-06-22T00:54:20;99874.03;;;24.53;61.50
47883;BME280;37739;50.350;7.578;2023-06-22T00:57:08;99875.84;;;24.46;62.66
47883;BME280;37739;50.350;7.578;2023-06-22T00:59:36;99864.63;;;24.41;63.34
47883;BME280;37739;50.350;7.578;2023-06-22T01:02:01;99872.53;;;24.36;63.68
47883;BME280;37739;50.350;7.578;2023-06-22T01:04:39;99863.09;;;24.29;66.82
47883;BME280;37739;50.350;7.578;2023-06-22T01:12:55;99856.38;;;24.13;66.78
47883;BME280;37739;50.350;7.578;2023-06-22T01:18:23;99849.84;;;23.87;67.84
47883;BME280;37739;50.350;7.578;2023-06-22T01:21:02;99839.28;;;23.90;68.26
47883;BME280;37739;50.350;7.578;2023-06-22T01:26:38;99839.41;;;23.84;68.84
47883;BME280;37739;50.350;7.578;2023-06-22T01:29:11;99840.31;;;23.83;67.67
47883;BME280;37739;50.350;7.578;2023-06-22T01:31:45;99829.97;;;23.72;67.78
47883;BME280;37739;50.350;7.578;2023-06-22T01:34:15;99842.13;;;23.75;67.58
47883;BME280;37739;50.350;7.578;2023-06-22T01:36:58;99849.94;;;23.78;67.04
47883;BME280;37739;50.350;7.578;2023-06-22T01:39:26;99845.50;;;23.84;66.60
47883;BME280;37739;50.350;7.578;2023-06-22T01:41:53;99835.00;;;23.86;66.59
47883;BME280;37739;50.350;7.578;2023-06-22T01:44:27;99822.84;;;23.82;67.23
47883;BME280;37739;50.350;7.578;2023-06-22T01:46:53;99814.16;;;23.80;67.05
47883;BME280;37739;50.350;7.578;2023-06-22T01:49:27;99795.88;;;23.74;68.58
47883;BME280;37739;50.350;7.578;2023-06-22T01:54:41;99810.19;;;23.54;67.88
47883;BME280;37739;50.350;7.578;2023-06-22T01:57:06;99828.13;;;23.21;68.85
47883;BME280;37739;50.350;7.578;2023-06-22T02:05:17;99846.84;;;23.54;69.09
47883;BME280;37739;50.350;7.578;2023-06-22T02:10:29;99861.53;;;23.61;67.90
47883;BME280;37739;50.350;7.578;2023-06-22T02:13:06;99858.94;;;23.61;67.96
47883;BME280;37739;50.350;7.578;2023-06-22T02:15:41;99864.25;;;23.55;68.34
47883;BME280;37739;50.350;7.578;2023-06-22T02:18:11;99856.53;;;23.47;68.49
47883;BME280;37739;50.350;7.578;2023-06-22T02:20:45;99855.63;;;23.50;68.77
47883;BME280;37739;50.350;7.578;2023-06-22T02:23:44;99851.28;;;23.49;69.96
47883;BME280;37739;50.350;7.578;2023-06-22T02:26:19;99842.69;;;23.39;70.47
47883;BME280;37739;50.350;7.578;2023-06-22T02:28:44;99826.06;;;23.40;68.95
47883;BME280;37739;50.350;7.578;2023-06-22T02:31:18;99814.03;;;23.30;70.00
47883;BME280;37739;50.350;7.578;2023-06-22T02:33:48;99799.19;;;23.30;70.69
47883;BME280;37739;50.350;7.578;2023-06-22T02:36:33;99778.31;;;23.27;71.37
47883;BME280;37739;50.350;7.578;2023-06-22T02:38:58;99784.41;;;23.26;70.87
47883;BME280;37739;50.350;7.578;2023-06-22T02:41:26;99785.31;;;23.25;71.26
47883;BME280;37739;50.350;7.578;2023-06-22T02:43:56;99788.81;;;23.24;71.75
47883;BME280;37739;50.350;7.578;2023-06-22T02:46:35;99784.47;;;23.23;73.11
47883;BME280;37739;50.350;7.578;2023-06-22T02:49:06;99787.03;;;23.25;73.05
47883;BME280;37739;50.350;7.578;2023-06-22T02:51:39;99791.53;;;23.17;73.80
47883;BME280;37739;50.350;7.578;2023-06-22T02:54:11;99796.94;;;23.06;73.24
47883;BME280;37739;50.350;7.578;2023-06-22T02:56:38;99795.06;;;23.14;72.23
47883;BME280;37739;50.350;7.578;2023-06-22T02:59:12;99795.00;;;23.17;73.49
47883;BME280;37739;50.350;7.578;2023-06-22T03:01:43;99791.53;;;23.17;73.63
47883;BME280;37739;50.350;7.578;2023-06-22T03:04:17;99791.63;;;23.12;72.64
47883;BME280;37739;50.350;7.578;2023-06-22T03:06:46;99791.72;;;23.04;72.92
47883;BME280;37739;50.350;7.578;2023-06-22T03:09:19;99797.78;;;23.08;72.88
47883;BME280;37739;50.350;7.578;2023-06-22T03:11:50;99801.19;;;23.13;73.16
47883;BME280;37739;50.350;7.578;2023-06-22T03:14:29;99807.31;;;23.13;73.30
47883;BME280;37739;50.350;7.578;2023-06-22T03:16:54;99802.97;;;23.09;73.21
47883;BME280;37739;50.350;7.578;2023-06-22T03:19:19;99789.03;;;23.09;73.31
47883;BME280;37739;50.350;7.578;2023-06-22T03:22:01;99787.31;;;23.08;73.79
47883;BME280;37739;50.350;7.578;2023-06-22T03:24:50;99800.34;;;23.09;74.08
47883;BME280;37739;50.350;7.578;2023-06-22T03:27:21;99794.28;;;23.09;73.63
47883;BME280;37739;50.350;7.578;2023-06-22T03:30:09;99788.19;;;23.07;73.76
47883;BME280;37739;50.350;7.578;2023-06-22T03:32:38;99790.81;;;23.07;73.49
47883;BME280;37739;50.350;7.578;2023-06-22T03:35:22;99784.72;;;23.06;75.23
47883;BME280;37739;50.350;7.578;2023-06-22T03:37:56;99787.34;;;23.02;73.86
47883;BME280;37739;50.350;7.578;2023-06-22T03:40:27;99788.28;;;22.98;74.39
47883;BME280;37739;50.350;7.578;2023-06-22T03:43:01;99785.72;;;22.96;74.84
47883;BME280;37739;50.350;7.578;2023-06-22T03:45:32;99789.22;;;22.93;74.46
47883;BME280;37739;50.350;7.578;2023-06-22T03:48:12;99787.53;;;22.88;75.27
47883;BME280;37739;50.350;7.578;2023-06-22T03:50:39;99789.41;;;22.78;75.04
47883;BME280;37739;50.350;7.578;2023-06-22T03:53:10;99787.75;;;22.72;75.54
47883;BME280;37739;50.350;7.578;2023-06-22T03:55:55;99790.34;;;22.74;75.80
47883;BME280;37739;50.350;7.578;2023-06-22T03:58:21;99788.59;;;22.74;75.33
47883;BME280;37739;50.350;7.578;2023-06-22T04:00:48;99792.97;;;22.74;75.56
47883;BME280;37739;50.350;7.578;2023-06-22T04:03:14;99793.78;;;22.79;74.78
47883;BME280;37739;50.350;7.578;2023-06-22T04:08:29;99792.94;;;22.77;74.23
47883;BME280;37739;50.350;7.578;2023-06-22T04:11:04;99794.66;;;22.77;74.32
47883;BME280;37739;50.350;7.578;2023-06-22T04:13:32;99800.78;;;22.77;74.78
47883;BME280;37739;50.350;7.578;2023-06-22T04:16:00;99797.31;;;22.75;74.75
47883;BME280;37739;50.350;7.578;2023-06-22T04:18:44;99797.44;;;22.67;75.85
47883;BME280;37739;50.350;7.578;2023-06-22T04:21:18;99796.53;;;22.67;75.42
47883;BME280;37739;50.350;7.578;2023-06-22T04:23:59;99789.59;;;22.66;75.02
47883;BME280;37739;50.350;7.578;2023-06-22T04:26:27;99788.75;;;22.65;75.29
47883;BME280;37739;50.350;7.578;2023-06-22T04:29:12;99783.50;;;22.65;75.59
47883;BME280;37739;50.350;7.578;2023-06-22T04:32:09;99772.19;;;22.63;76.36
47883;BME280;37739;50.350;7.578;2023-06-22T04:34:46;99777.50;;;22.57;76.33
47883;BME280;37739;50.350;7.578;2023-06-22T04:37:18;99770.59;;;22.51;76.44
47883;BME280;37739;50.350;7.578;2023-06-22T04:39:43;99771.50;;;22.49;76.13
47883;BME280;37739;50.350;7.578;2023-06-22T04:42:14;99775.88;;;22.47;75.84
47883;BME280;37739;50.350;7.578;2023-06-22T04:44:40;99770.63;;;22.50;75.62
47883;BME280;37739;50.350;7.578;2023-06-22T04:47:07;99774.09;;;22.52;75.98
47883;BME280;37739;50.350;7.578;2023-06-22T04:49:44;99773.25;;;22.48;76.56
47883;BME280;37739;50.350;7.578;2023-06-22T04:52:17;99767.19;;;22.45;75.90
47883;BME280;37739;50.350;7.578;2023-06-22T04:54:49;99765.44;;;22.44;76.32
47883;BME280;37739;50.350;7.578;2023-06-22T04:57:39;99767.22;;;22.42;76.65
47883;BME280;37739;50.350;7.578;2023-06-22T05:00:05;99767.28;;;22.37;76.02
47883;BME280;37739;50.350;7.578;2023-06-22T05:03:00;99754.97;;;22.47;76.45
47883;BME280;37739;50.350;7.578;2023-06-22T05:05:28;99761.03;;;22.50;75.37
47883;BME280;37739;50.350;7.578;2023-06-22T05:07:56;99761.84;;;22.54;75.16
47883;BME280;37739;50.350;7.578;2023-06-22T05:10:28;99764.41;;;22.57;75.51
47883;BME280;37739;50.350;7.578;2023-06-22T05:12:53;99762.66;;;22.59;75.23
47883;BME280;37739;50.350;7.578;2023-06-22T05:15:20;99757.41;;;22.59;74.52
47883;BME280;37739;50.350;7.578;2023-06-22T05:17:47;99764.31;;;22.66;74.59
47883;BME280;37739;50.350;7.578;2023-06-22T05:20:12;99763.28;;;22.78;73.63
47883;BME280;37739;50.350;7.578;2023-06-22T05:22:43;99758.00;;;22.81;73.25
47883;BME280;37739;50.350;7.578;2023-06-22T05:25:13;99756.25;;;22.83;73.24
47883;BME280;37739;50.350;7.578;2023-06-22T05:27:38;99749.25;;;22.84;73.20
47883;BME280;37739;50.350;7.578;2023-06-22T05:30:12;99738.75;;;22.88;73.30
47883;BME280;37739;50.350;7.578;2023-06-22T05:32:40;99743.03;;;22.92;72.76
47883;BME280;37739;50.350;7.578;2023-06-22T05:35:11;99754.44;;;22.88;72.88
47883;BME280;37739;50.350;7.578;2023-06-22T05:37:45;99756.16;;;22.89;72.81
47883;BME280;37739;50.350;7.578;2023-06-22T05:40:11;99755.50;;;22.73;73.86
47883;BME280;37739;50.350;7.578;2023-06-22T05:42:36;99751.22;;;22.66;74.34
47883;BME280;37739;50.350;7.578;2023-06-22T05:45:02;99747.66;;;22.73;73.35
47883;BME280;37739;50.350;7.578;2023-06-22T05:47:27;99757.00;;;22.91;73.03
47883;BME280;37739;50.350;7.578;2023-06-22T05:49:55;99750.78;;;23.00;72.56
47883;BME280;37739;50.350;7.578;2023-06-22T05:52:20;99762.03;;;23.07;72.02
47883;BME280;37739;50.350;7.578;2023-06-22T05:54:46;99755.03;;;23.09;71.88
47883;BME280;37739;50.350;7.578;2023-06-22T05:57:13;99754.88;;;23.20;71.59
47883;BME280;37739;50.350;7.578;2023-06-22T05:59:46;99762.63;;;23.26;71.71
47883;BME280;37739;50.350;7.578;2023-06-22T06:02:12;99756.34;;;23.36;71.31
47883;BME280;37739;50.350;7.578;2023-06-22T06:04:44;99764.03;;;23.47;70.97
47883;BME280;37739;50.350;7.578;2023-06-22T06:07:21;99761.28;;;23.55;70.88
47883;BME280;37739;50.350;7.578;2023-06-22T06:09:47;99764.75;;;23.55;70.14
47883;BME280;37739;50.350;7.578;2023-06-22T06:12:15;99772.59;;;23.57;70.31
47883;BME280;37739;50.350;7.578;2023-06-22T06:14:41;99776.88;;;23.61;69.90
47883;BME280;37739;50.350;7.578;2023-06-22T06:17:08;99774.09;;;23.73;70.11
47883;BME280;37739;50.350;7.578;2023-06-22T06:19:34;99767.00;;;23.80;69.37
47883;BME280;37739;50.350;7.578;2023-06-22T06:21:59;99770.41;;;23.85;69.14
47883;BME280;37739;50.350;7.578;2023-06-22T06:24:25;99772.91;;;23.93;69.20
47883;BME280;37739;50.350;7.578;2023-06-22T06:26:50;99770.06;;;24.02;69.49
47883;BME280;37739;50.350;7.578;2023-06-22T06:29:25;99770.00;;;24.08;69.60
47883;BME280;37739;50.350;7.578;2023-06-22T06:31:56;99772.50;;;24.13;69.10
47883;BME280;37739;50.350;7.578;2023-06-22T06:34:22;99764.41;;;24.25;68.20
47883;BME280;37739;50.350;7.578;2023-06-22T06:36:56;99756.47;;;24.28;68.35
47883;BME280;37739;50.350;7.578;2023-06-22T06:39:30;99764.31;;;24.29;68.63
47883;BME280;37739;50.350;7.578;2023-06-22T06:42:10;99763.31;;;24.37;68.05
47883;BME280;37739;50.350;7.578;2023-06-22T06:44:41;99757.91;;;24.44;68.04
47883;BME280;37739;50.350;7.578;2023-06-22T06:47:07;99766.84;;;24.34;67.88
47883;BME280;37739;50.350;7.578;2023-06-22T06:49:55;99762.06;;;24.56;67.10
47883;BME280;37739;50.350;7.578;2023-06-22T06:52:53;99754.13;;;24.59;68.32
47883;BME280;37739;50.350;7.578;2023-06-22T06:55:18;99741.75;;;24.66;67.34
47883;BME280;37739;50.350;7.578;2023-06-22T06:58:03;99744.06;;;24.80;66.82
47883;BME280;37739;50.350;7.578;2023-06-22T07:00:39;99753.50;;;24.88;65.74
47883;BME280;37739;50.350;7.578;2023-06-22T07:03:10;99747.63;;;24.77;66.82
47883;BME280;37739;50.350;7.578;2023-06-22T07:05:35;99754.63;;;24.77;67.05
47883;BME280;37739;50.350;7.578;2023-06-22T07:08:01;99752.72;;;24.85;67.31
47883;BME280;37739;50.350;7.578;2023-06-22T07:10:45;99749.16;;;24.87;66.40
47883;BME280;37739;50.350;7.578;2023-06-22T07:13:10;99753.41;;;24.92;66.28
47883;BME280;37739;50.350;7.578;2023-06-22T07:15:38;99748.78;;;25.03;65.91
47883;BME280;37739;50.350;7.578;2023-06-22T07:18:15;99737.88;;;25.21;65.75
47883;BME280;37739;50.350;7.578;2023-06-22T07:20:41;99730.75;;;25.26;64.80
47883;BME280;37739;50.350;7.578;2023-06-22T07:26:31;99731.16;;;25.45;64.57
47883;BME280;37739;50.350;7.578;2023-06-22T07:29:00;99734.38;;;25.57;64.31
47883;BME280;37739;50.350;7.578;2023-06-22T07:31:37;99732.63;;;25.57;64.27
47883;BME280;37739;50.350;7.578;2023-06-22T07:34:11;99712.97;;;25.72;63.72
47883;BME280;37739;50.350;7.578;2023-06-22T07:36:59;99707.34;;;25.86;63.53
47883;BME280;37739;50.350;7.578;2023-06-22T07:39:27;99711.81;;;25.82;62.99
47883;BME280;37739;50.350;7.578;2023-06-22T07:41:53;99709.34;;;25.76;63.14
47883;BME280;37739;50.350;7.578;2023-06-22T07:44:28;99710.38;;;25.71;63.50
47883;BME280;37739;50.350;7.578;2023-06-22T07:46:59;99706.47;;;25.53;63.89
47883;BME280;37739;50.350;7.578;2023-06-22T07:49:31;99703.81;;;25.54;64.15
47883;BME280;37739;50.350;7.578;2023-06-22T07:51:59;99703.22;;;25.77;63.47
47883;BME280;37739;50.350;7.578;2023-06-22T07:54:34;99700.28;;;25.88;63.27
47883;BME280;37739;50.350;7.578;2023-06-22T07:57:48;99691.09;;;25.72;63.45
47883;BME280;37739;50.350;7.578;2023-06-22T08:00:14;99688.34;;;25.76;63.55
47883;BME280;37739;50.350;7.578;2023-06-22T08:02:45;99680.84;;;25.95;62.58
47883;BME280;37739;50.350;7.578;2023-06-22T08:05:18;99666.88;;;26.23;62.38
47883;BME280;37739;50.350;7.578;2023-06-22T08:07:49;99667.13;;;26.45;61.79
47883;BME280;37739;50.350;7.578;2023-06-22T08:10:21;99655.31;;;26.58;61.31
47883;BME280;37739;50.350;7.578;2023-06-22T08:13:06;99656.00;;;26.65;60.23
47883;BME280;37739;50.350;7.578;2023-06-22T08:15:34;99645.16;;;26.76;60.42
47883;BME280;37739;50.350;7.578;2023-06-22T08:18:06;99636.44;;;26.74;60.02
47883;BME280;37739;50.350;7.578;2023-06-22T08:20:31;99631.53;;;26.90;60.01
47883;BME280;37739;50.350;7.578;2023-06-22T08:22:57;99642.97;;;26.89;59.14
47883;BME280;37739;50.350;7.578;2023-06-22T08:25:25;99638.41;;;26.67;58.58
47883;BME280;37739;50.350;7.578;2023-06-22T08:28:33;99636.59;;;26.69;59.36
47883;BME280;37739;50.350;7.578;2023-06-22T08:30:59;99641.22;;;26.89;58.86
47883;BME280;37739;50.350;7.578;2023-06-22T08:33:29;99636.81;;;26.90;58.28
47883;BME280;37739;50.350;7.578;2023-06-22T08:35:58;99631.16;;;26.75;58.73
47883;BME280;37739;50.350;7.578;2023-06-22T08:38:29;99624.47;;;26.92;58.88
47883;BME280;37739;50.350;7.578;2023-06-22T08:40:54;99639.41;;;26.91;58.26
47883;BME280;37739;50.350;7.578;2023-06-22T08:43:20;99636.91;;;27.13;58.28
47883;BME280;37739;50.350;7.578;2023-06-22T08:45:48;99628.09;;;27.14;57.42
47883;BME280;37739;50.350;7.578;2023-06-22T08:48:17;99631.25;;;26.99;58.36
47883;BME280;37739;50.350;7.578;2023-06-22T08:50:42;99621.06;;;26.88;58.48
47883;BME280;37739;50.350;7.578;2023-06-22T08:53:25;99618.88;;;27.01;58.09
47883;BME280;37739;50.350;7.578;2023-06-22T08:56:02;99600.75;;;27.18;57.99
47883;BME280;37739;50.350;7.578;2023-06-22T08:58:37;99599.44;;;27.32;57.61
47883;BME280;37739;50.350;7.578;2023-06-22T09:04:27;99605.50;;;27.83;56.09
47883;BME280;37739;50.350;7.578;2023-06-22T09:07:02;99602.41;;;27.71;56.18
47883;BME280;37739;50.350;7.578;2023-06-22T09:09:35;99588.88;;;27.80;56.01
47883;BME280;37739;50.350;7.578;2023-06-22T09:12:05;99575.81;;;28.03;56.07
47883;BME280;37739;50.350;7.578;2023-06-22T09:14:53;99566.53;;;28.36;55.32
47883;BME280;37739;50.350;7.578;2023-06-22T09:20:16;99547.72;;;28.46;54.67
47883;BME280;37739;50.350;7.578;2023-06-22T09:22:46;99546.84;;;28.23;55.16
47883;BME280;37739;50.350;7.578;2023-06-22T09:25:13;99553.09;;;28.43;55.12
47883;BME280;37739;50.350;7.578;2023-06-22T09:27:41;99538.41;;;28.59;54.64
47883;BME280;37739;50.350;7.578;2023-06-22T09:30:07;99527.47;;;28.68;54.49
47883;BME280;37739;50.350;7.578;2023-06-22T09:32:34;99529.16;;;28.69;54.94
47883;BME280;37739;50.350;7.578;2023-06-22T09:35:04;99514.22;;;28.70;54.83
47883;BME280;37739;50.350;7.578;2023-06-22T09:37:30;99511.25;;;28.77;54.53
47883;BME280;37739;50.350;7.578;2023-06-22T09:39:58;99517.19;;;28.83;54.75
47883;BME280;37739;50.350;7.578;2023-06-22T09:42:23;99497.28;;;28.75;54.18
47883;BME280;37739;50.350;7.578;2023-06-22T09:44:51;99522.38;;;28.42;54.07
47883;BME280;37739;50.350;7.578;2023-06-22T09:47:19;99514.91;;;28.09;55.35
47883;BME280;37739;50.350;7.578;2023-06-22T09:49:46;99504.78;;;28.20;55.18
47883;BME280;37739;50.350;7.578;2023-06-22T09:52:11;99502.44;;;28.34;55.41
47883;BME280;37739;50.350;7.578;2023-06-22T09:54:39;99505.22;;;28.31;55.30
47883;BME280;37739;50.350;7.578;2023-06-22T09:57:04;99493.81;;;28.09;55.98
47883;BME280;37739;50.350;7.578;2023-06-22T09:59:30;99485.59;;;27.71;57.13
47883;BME280;37739;50.350;7.578;2023-06-22T10:01:57;99479.78;;;27.39;56.56
47883;BME280;37739;50.350;7.578;2023-06-22T10:04:23;99472.09;;;27.56;56.84
47883;BME280;37739;50.350;7.578;2023-06-22T10:06:49;99481.16;;;27.49;56.70
47883;BME280;37739;50.350;7.578;2023-06-22T10:09:15;99488.13;;;27.27;57.23
47883;BME280;37739;50.350;7.578;2023-06-22T10:11:40;99485.59;;;27.23;57.52
47883;BME280;37739;50.350;7.578;2023-06-22T10:14:05;99500.91;;;27.12;57.78
47883;BME280;37739;50.350;7.578;2023-06-22T10:16:33;99535.00;;;27.15;57.74
47883;BME280;37739;50.350;7.578;2023-06-22T10:19:03;99563.06;;;27.16;58.26
47883;BME280;37739;50.350;7.578;2023-06-22T10:21:28;99593.50;;;27.25;58.30
47883;BME280;37739;50.350;7.578;2023-06-22T10:23:56;99600.03;;;27.40;57.78
47883;BME280;37739;50.350;7.578;2023-06-22T10:26:22;99596.22;;;27.49;58.12
47883;BME280;37739;50.350;7.578;2023-06-22T10:28:53;99592.06;;;27.41;59.81
47883;BME280;37739;50.350;7.578;2023-06-22T10:31:21;99595.78;;;27.09;61.73
47883;BME280;37739;50.350;7.578;2023-06-22T10:33:48;99600.47;;;27.01;63.35
47883;BME280;37739;50.350;7.578;2023-06-22T10:36:16;99598.81;;;26.98;64.38
47883;BME280;37739;50.350;7.578;2023-06-22T10:38:44;99582.28;;;26.93;65.32
47883;BME280;37739;50.350;7.578;2023-06-22T10:41:12;99554.47;;;26.86;65.77
47883;BME280;37739;50.350;7.578;2023-06-22T10:43:37;99534.41;;;26.82;67.90
47883;BME280;37739;50.350;7.578;2023-06-22T10:46:07;99518.31;;;26.66;69.14
47883;BME280;37739;50.350;7.578;2023-06-22T10:48:35;99517.19;;;26.98;70.05
47883;BME280;37739;50.350;7.578;2023-06-22T10:51:00;99520.16;;;27.63;68.69
47883;BME280;37739;50.350;7.578;2023-06-22T10:53:28;99524.88;;;27.77;69.80
47883;BME280;37739;50.350;7.578;2023-06-22T10:55:57;99524.03;;;27.76;68.03
47883;BME280;37739;50.350;7.578;2023-06-22T10:58:22;99527.00;;;28.14;66.91
47883;BME280;37739;50.350;7.578;2023-06-22T11:00:48;99525.94;;;28.40;66.17
47883;BME280;37739;50.350;7.578;2023-06-22T11:03:16;99526.81;;;28.41;64.89
47883;BME280;37739;50.350;7.578;2023-06-22T11:05:41;99536.31;;;28.67;64.42
47883;BME280;37739;50.350;7.578;2023-06-22T11:08:07;99537.47;;;29.03;64.40
47883;BME280;37739;50.350;7.578;2023-06-22T11:10:32;99539.63;;;28.93;61.22
47883;BME280;37739;50.350;7.578;2023-06-22T11:12:59;99525.09;;;29.03;61.39
47883;BME280;37739;50.350;7.578;2023-06-22T11:15:31;99530.41;;;29.24;62.16
47883;BME280;37739;50.350;7.578;2023-06-22T11:17:56;99512.16;;;29.38;61.60
47883;BME280;37739;50.350;7.578;2023-06-22T11:20:22;99495.16;;;29.44;62.17
47883;BME280;37739;50.350;7.578;2023-06-22T11:22:49;99503.31;;;29.39;60.90
47883;BME280;37739;50.350;7.578;2023-06-22T11:25:14;99495.16;;;29.44;58.50
47883;BME280;37739;50.350;7.578;2023-06-22T11:27:42;99491.66;;;29.43;59.66
47883;BME280;37739;50.350;7.578;2023-06-22T11:30:10;99497.38;;;29.53;57.90
47883;BME280;37739;50.350;7.578;2023-06-22T11:32:35;99488.44;;;29.55;57.81
47883;BME280;37739;50.350;7.578;2023-06-22T11:35:03;99490.97;;;29.19;57.93
47883;BME280;37739;50.350;7.578;2023-06-22T11:37:31;99483.91;;;28.99;58.80
47883;BME280;37739;50.350;7.578;2023-06-22T11:39:56;99485.56;;;29.02;58.73
47883;BME280;37739;50.350;7.578;2023-06-22T11:42:21;99485.84;;;29.16;59.24
47883;BME280;37739;50.350;7.578;2023-06-22T11:44:48;99476.56;;;29.06;58.28
47883;BME280;37739;50.350;7.578;2023-06-22T11:47:16;99474.25;;;28.98;58.45
47883;BME280;37739;50.350;7.578;2023-06-22T11:49:45;99475.06;;;29.00;58.73
47883;BME280;37739;50.350;7.578;2023-06-22T11:52:10;99463.41;;;28.85;58.50
47883;BME280;37739;50.350;7.578;2023-06-22T11:54:35;99459.03;;;28.84;58.55
47883;BME280;37739;50.350;7.578;2023-06-22T11:57:01;99453.81;;;29.03;57.47
47883;BME280;37739;50.350;7.578;2023-06-22T11:59:26;99440.50;;;29.25;56.61
47883;BME280;37739;50.350;7.578;2023-06-22T12:01:59;99444.16;;;29.42;56.31
47883;BME280;37739;50.350;7.578;2023-06-22T12:04:25;99437.00;;;30.01;55.45
47883;BME280;37739;50.350;7.578;2023-06-22T12:06:50;99435.25;;;30.36;54.56
47883;BME280;37739;50.350;7.578;2023-06-22T12:09:15;99438.75;;;30.71;53.02
47883;BME280;37739;50.350;7.578;2023-06-22T12:11:43;99426.69;;;30.83;53.12
47883;BME280;37739;50.350;7.578;2023-06-22T12:14:08;99421.81;;;31.25;53.21
47883;BME280;37739;50.350;7.578;2023-06-22T12:16:34;99420.47;;;31.34;52.69
47883;BME280;37739;50.350;7.578;2023-06-22T12:19:01;99415.50;;;31.27;53.28
47883;BME280;37739;50.350;7.578;2023-06-22T12:21:26;99417.91;;;31.32;53.26
47883;BME280;37739;50.350;7.578;2023-06-22T12:23:54;99419.09;;;31.26;53.53
47883;BME280;37739;50.350;7.578;2023-06-22T12:26:19;99421.97;;;31.55;52.98
47883;BME280;37739;50.350;7.578;2023-06-22T12:28:45;99407.00;;;31.70;52.28
47883;BME280;37739;50.350;7.578;2023-06-22T12:31:14;99400.47;;;31.60;51.38
47883;BME280;37739;50.350;7.578;2023-06-22T12:33:41;99388.13;;;31.90;51.77
47883;BME280;37739;50.350;7.578;2023-06-22T12:36:07;99393.31;;;32.24;51.11
47883;BME280;37739;50.350;7.578;2023-06-22T12:38:36;99390.28;;;32.30;49.95
47883;BME280;37739;50.350;7.578;2023-06-22T12:41:04;99377.38;;;32.24;50.73
47883;BME280;37739;50.350;7.578;2023-06-22T12:43:31;99360.69;;;32.66;50.45
47883;BME280;37739;50.350;7.578;2023-06-22T12:45:57;99357.06;;;32.67;49.89
47883;BME280;37739;50.350;7.578;2023-06-22T12:48:22;99344.38;;;32.73;49.23
47883;BME280;37739;50.350;7.578;2023-06-22T12:50:51;99348.88;;;32.42;49.33
47883;BME280;37739;50.350;7.578;2023-06-22T12:53:16;99345.19;;;32.14;51.02
47883;BME280;37739;50.350;7.578;2023-06-22T12:55:41;99326.53;;;32.01;50.77
47883;BME280;37739;50.350;7.578;2023-06-22T12:58:07;99320.00;;;31.91;51.07
47883;BME280;37739;50.350;7.578;2023-06-22T13:00:34;99304.78;;;32.54;50.14
47883;BME280;37739;50.350;7.578;2023-06-22T13:03:02;99310.31;;;33.35;49.04
47883;BME280;37739;50.350;7.578;2023-06-22T13:05:27;99305.47;;;32.72;49.50
47883;BME280;37739;50.350;7.578;2023-06-22T13:07:55;99310.28;;;31.92;51.31
47883;BME280;37739;50.350;7.578;2023-06-22T13:10:20;99301.56;;;31.89;51.38
47883;BME280;37739;50.350;7.578;2023-06-22T13:12:45;99303.00;;;32.40;50.53
47883;BME280;37739;50.350;7.578;2023-06-22T13:15:11;99288.50;;;32.74;49.89
47883;BME280;37739;50.350;7.578;2023-06-22T13:17:36;99275.22;;;32.60;49.36
47883;BME280;37739;50.350;7.578;2023-06-22T13:20:04;99266.47;;;32.15;51.02
47883;BME280;37739;50.350;7.578;2023-06-22T13:22:32;99252.66;;;32.24;50.79
47883;BME280;37739;50.350;7.578;2023-06-22T13:25:00;99232.38;;;32.08;50.24
47883;BME280;37739;50.350;7.578;2023-06-22T13:27:27;99219.13;;;31.78;50.96
47883;BME280;37739;50.350;7.578;2023-06-22T13:29:52;99218.69;;;31.56;51.45
47883;BME280;37739;50.350;7.578;2023-06-22T13:32:18;99216.72;;;31.59;51.81
47883;BME280;37739;50.350;7.578;2023-06-22T13:34:45;99218.84;;;31.83;51.94
47883;BME280;37739;50.350;7.578;2023-06-22T13:37:11;99222.13;;;31.42;51.98
47883;BME280;37739;50.350;7.578;2023-06-22T13:39:38;99217.75;;;31.10;53.35
47883;BME280;37739;50.350;7.578;2023-06-22T13:42:04;99197.28;;;30.81;54.05
47883;BME280;37739;50.350;7.578;2023-06-22T13:44:31;99181.75;;;30.43;54.90
47883;BME280;37739;50.350;7.578;2023-06-22T13:46:57;99166.50;;;30.14;55.13
47883;BME280;37739;50.350;7.578;2023-06-22T13:49:25;99155.78;;;30.00;55.51
47883;BME280;37739;50.350;7.578;2023-06-22T13:51:51;99156.50;;;30.04;55.58